Time;durP1;ratioP1;P1;durP2;ratioP2;P2;SDS_P1;SDS_P2;PMS_P1;PMS_P2;Temp;Humidity;BMP_temperature;BMP_pressure;BME280_temperature;BME280_humidity;BME280_pressure;Samples;Min_cycle;Max_cycle;Signal;HPM_P1;HPM_P2
2021/01/17 00:00:29;;;;;;;63.83;31.43;;;-2.60;99.90;;;;;;5035479;28;20179;-77
2021/01/17 00:02:56;;;;;;;62.77;31.07;;;-2.60;99.90;;;;;;5033813;28;20563;-79
2021/01/17 00:05:24;;;;;;;67.80;32.90;;;-2.60;99.90;;;;;;5038402;28;20182;-78
2021/01/17 00:07:51;;;;;;;60.67;31.33;;;-2.60;99.90;;;;;;5036419;28;20179;-79
2021/01/17 00:10:21;;;;;;;65.43;31.93;;;-2.60;99.90;;;;;;5037507;28;20226;-78
2021/01/17 00:12:49;;;;;;;67.93;32.23;;;-2.60;99.90;;;;;;5035667;28;20208;-78
2021/01/17 00:15:15;;;;;;;64.47;31.17;;;-2.60;99.90;;;;;;5035911;28;20179;-78
2021/01/17 00:17:43;;;;;;;61.87;32.03;;;-2.60;99.90;;;;;;5035117;28;20241;-77
2021/01/17 00:20:13;;;;;;;64.37;33.07;;;-2.60;99.90;;;;;;5033400;28;20646;-77
2021/01/17 00:22:39;;;;;;;59.23;29.67;;;-2.60;99.90;;;;;;5021012;28;20206;-78
2021/01/17 00:25:06;;;;;;;66.27;32.30;;;-2.60;99.90;;;;;;5033597;28;20183;-78
2021/01/17 00:27:32;;;;;;;60.37;30.03;;;-2.60;99.90;;;;;;5022361;28;20188;-78
2021/01/17 00:29:58;;;;;;;54.77;28.60;;;-2.50;99.90;;;;;;5030862;28;20254;-78
2021/01/17 00:32:24;;;;;;;59.47;29.97;;;-2.50;99.90;;;;;;5034802;28;20187;-77
2021/01/17 00:34:49;;;;;;;60.33;29.50;;;-2.50;99.90;;;;;;5034741;28;20267;-78
2021/01/17 00:37:16;;;;;;;56.83;29.33;;;-2.40;99.90;;;;;;5034708;28;20226;-78
2021/01/17 00:39:42;;;;;;;60.53;30.53;;;-2.40;99.90;;;;;;5036619;28;20201;-79
2021/01/17 00:42:13;;;;;;;57.63;28.87;;;-2.30;99.90;;;;;;5029443;28;20218;-78
2021/01/17 00:44:42;;;;;;;62.27;30.83;;;-2.30;99.90;;;;;;5037102;28;20276;-78
2021/01/17 00:47:12;;;;;;;55.20;28.60;;;-2.30;99.90;;;;;;5036963;28;20630;-78
2021/01/17 00:49:38;;;;;;;57.97;28.67;;;-2.20;99.90;;;;;;5037132;28;20182;-78
2021/01/17 00:52:04;;;;;;;64.20;31.13;;;-2.20;99.90;;;;;;5037202;28;20187;-78
2021/01/17 00:54:30;;;;;;;57.13;29.63;;;-2.20;99.90;;;;;;5036404;28;20273;-78
2021/01/17 00:56:55;;;;;;;62.83;31.00;;;-2.20;99.90;;;;;;5037316;28;20253;-78
2021/01/17 00:59:21;;;;;;;65.13;33.03;;;-2.20;99.90;;;;;;5036792;28;20177;-78
2021/01/17 01:01:48;;;;;;;60.43;30.63;;;-2.20;99.90;;;;;;5034886;28;20245;-78
2021/01/17 01:04:16;;;;;;;59.60;30.80;;;-2.20;99.90;;;;;;5036651;28;20214;-78
2021/01/17 01:06:42;;;;;;;59.40;30.63;;;-2.30;99.90;;;;;;5035355;28;20183;-79
2021/01/17 01:09:09;;;;;;;62.30;32.47;;;-2.30;99.90;;;;;;5036864;28;20220;-78
2021/01/17 01:11:35;;;;;;;59.93;31.03;;;-2.30;99.90;;;;;;5036531;28;20182;-79
2021/01/17 01:14:01;;;;;;;61.07;31.87;;;-2.40;99.90;;;;;;5036550;28;20232;-78
2021/01/17 01:16:26;;;;;;;60.30;31.37;;;-2.40;99.90;;;;;;5036473;28;20268;-78
2021/01/17 01:18:52;;;;;;;63.87;32.27;;;-2.40;99.90;;;;;;5036468;28;20189;-79
2021/01/17 01:21:29;;;;;;;62.17;30.93;;;-2.40;99.90;;;;;;5018981;28;20182;-79
2021/01/17 01:23:55;;;;;;;65.50;33.07;;;-2.30;99.90;;;;;;5036564;28;20278;-79
2021/01/17 01:26:25;;;;;;;64.97;32.27;;;-2.30;99.90;;;;;;5035008;28;20199;-77
2021/01/17 01:28:53;;;;;;;62.03;31.10;;;-2.30;99.90;;;;;;5017958;28;20189;-78
2021/01/17 01:31:20;;;;;;;58.40;30.57;;;-2.20;99.90;;;;;;5036244;28;20193;-79
2021/01/17 01:33:47;;;;;;;61.40;30.87;;;-2.20;99.90;;;;;;5034898;28;20229;-78
2021/01/17 01:36:38;;;;;;;63.40;31.73;;;-2.20;99.90;;;;;;5030393;28;20196;-78
2021/01/17 01:39:08;;;;;;;63.57;32.77;;;-2.20;99.90;;;;;;5036837;28;20259;-79
2021/01/17 01:41:36;;;;;;;65.60;32.00;;;-2.20;99.90;;;;;;5036822;28;20188;-78
2021/01/17 01:44:02;;;;;;;63.97;31.77;;;-2.20;99.90;;;;;;5034591;28;20979;-79
2021/01/17 01:46:29;;;;;;;65.40;32.23;;;-2.30;99.90;;;;;;5036399;28;20270;-78
2021/01/17 01:48:56;;;;;;;64.33;32.83;;;-2.30;99.90;;;;;;5036556;28;20201;-78
2021/01/17 01:51:25;;;;;;;65.80;31.47;;;-2.30;99.90;;;;;;5035485;28;20183;-78
2021/01/17 01:53:53;;;;;;;64.37;31.83;;;-2.30;99.90;;;;;;5050649;22;20229;-76
2021/01/17 01:56:19;;;;;;;66.93;31.63;;;-2.20;99.90;;;;;;5032228;28;20200;-76
2021/01/17 01:58:46;;;;;;;67.03;33.10;;;-2.20;99.90;;;;;;5032355;28;20175;-76
2021/01/17 02:01:12;;;;;;;61.47;31.77;;;-2.20;99.90;;;;;;5033621;28;20180;-77
2021/01/17 02:03:38;;;;;;;64.97;33.50;;;-2.20;99.90;;;;;;5016032;28;20708;-78
2021/01/17 02:06:11;;;;;;;61.73;30.87;;;-2.30;99.90;;;;;;5034085;28;20202;-77
2021/01/17 02:08:55;;;;;;;65.50;31.87;;;-2.30;99.90;;;;;;5033658;28;20174;-76
2021/01/17 02:11:30;;;;;;;63.73;31.93;;;-2.30;99.90;;;;;;5032974;28;20649;-77
2021/01/17 02:14:13;;;;;;;68.73;32.57;;;-2.20;99.90;;;;;;5029119;28;20261;-77
2021/01/17 02:16:40;;;;;;;62.67;32.13;;;-2.30;99.90;;;;;;5014966;28;20194;-77
2021/01/17 02:19:09;;;;;;;66.00;31.60;;;-2.20;99.90;;;;;;5032066;28;20174;-77
2021/01/17 02:21:39;;;;;;;63.53;31.43;;;-2.20;99.90;;;;;;5031723;28;20198;-77
2021/01/17 02:24:11;;;;;;;68.30;33.00;;;-2.20;99.90;;;;;;5031935;28;20205;-79
2021/01/17 02:26:39;;;;;;;59.53;30.80;;;-2.20;99.90;;;;;;5031505;28;20182;-76
2021/01/17 02:29:06;;;;;;;63.67;32.20;;;-2.20;99.90;;;;;;5022933;28;20178;-78
2021/01/17 02:31:34;;;;;;;65.67;31.90;;;-2.20;99.90;;;;;;5031497;28;20179;-77
2021/01/17 02:34:03;;;;;;;62.40;32.50;;;-2.20;99.90;;;;;;5031786;28;20205;-77
2021/01/17 02:36:48;;;;;;;70.00;33.43;;;-2.10;99.90;;;;;;5013676;28;20236;-77
2021/01/17 02:39:35;;;;;;;63.77;32.70;;;-2.10;99.90;;;;;;5031458;28;20647;-78
2021/01/17 02:42:03;;;;;;;67.33;32.90;;;-2.10;99.90;;;;;;5031221;28;20173;-77
2021/01/17 02:44:32;;;;;;;72.97;33.03;;;-2.00;99.90;;;;;;5031418;28;20548;-76
2021/01/17 02:46:59;;;;;;;60.43;31.10;;;-2.00;99.90;;;;;;5031192;28;20672;-76
2021/01/17 02:49:24;;;;;;;64.13;33.17;;;-2.00;99.90;;;;;;5031114;28;20179;-77
2021/01/17 02:51:51;;;;;;;62.63;32.57;;;-2.00;99.90;;;;;;5031253;28;20241;-77
2021/01/17 02:54:42;;;;;;;66.77;32.90;;;-2.00;99.90;;;;;;5031055;28;20216;-76
2021/01/17 02:57:10;;;;;;;62.70;31.57;;;-2.00;99.90;;;;;;5030444;28;20201;-76
2021/01/17 02:59:54;;;;;;;65.00;32.47;;;-1.90;99.90;;;;;;5031454;28;20219;-78
2021/01/17 03:02:26;;;;;;;61.10;30.67;;;-1.90;99.90;;;;;;5031052;28;20171;-75
2021/01/17 03:04:59;;;;;;;63.70;31.70;;;-1.90;99.90;;;;;;5031116;28;20191;-76
2021/01/17 03:07:27;;;;;;;64.90;32.83;;;-1.90;99.90;;;;;;5030827;28;20263;-76
2021/01/17 03:09:53;;;;;;;72.67;35.10;;;-1.80;99.90;;;;;;5013224;28;20184;-77
2021/01/17 03:12:19;;;;;;;64.37;32.63;;;-1.90;99.90;;;;;;5030985;28;20176;-76
2021/01/17 03:14:48;;;;;;;65.17;32.20;;;-1.90;99.90;;;;;;5010177;28;20203;-76
2021/01/17 03:17:13;;;;;;;63.17;31.97;;;-1.90;99.90;;;;;;5004549;28;20201;-77
2021/01/17 03:19:39;;;;;;;62.47;31.00;;;-1.90;99.90;;;;;;5027890;28;20679;-76
2021/01/17 03:22:05;;;;;;;62.23;32.20;;;-1.80;99.90;;;;;;5029009;28;20183;-77
2021/01/17 03:24:31;;;;;;;63.57;32.23;;;-1.80;99.90;;;;;;5031556;28;20276;-76
2021/01/17 03:26:57;;;;;;;62.77;31.43;;;-1.80;99.90;;;;;;5032899;28;20280;-77
2021/01/17 03:29:23;;;;;;;55.37;28.93;;;-1.80;99.90;;;;;;5027845;28;20187;-76
2021/01/17 03:31:49;;;;;;;51.37;27.20;;;-1.70;99.90;;;;;;5035181;28;20184;-76
2021/01/17 03:34:14;;;;;;;54.10;27.20;;;-1.60;99.90;;;;;;5035017;28;20216;-76
2021/01/17 03:36:40;;;;;;;51.00;27.40;;;-1.60;99.90;;;;;;5017170;28;20200;-76
2021/01/17 03:39:06;;;;;;;55.93;27.63;;;-1.50;99.90;;;;;;5035181;28;20655;-77
2021/01/17 03:41:32;;;;;;;55.57;25.60;;;-1.50;99.90;;;;;;5015555;28;20234;-76
2021/01/17 03:43:58;;;;;;;57.10;28.40;;;-1.60;99.90;;;;;;5033300;28;20219;-76
2021/01/17 03:46:24;;;;;;;59.23;29.13;;;-1.60;99.90;;;;;;5034632;28;20174;-77
2021/01/17 03:48:50;;;;;;;63.90;29.57;;;-1.70;99.90;;;;;;5016897;28;20594;-76
2021/01/17 03:51:16;;;;;;;57.23;28.40;;;-1.70;99.90;;;;;;5035029;28;20193;-75
2021/01/17 03:53:42;;;;;;;62.23;28.00;;;-1.70;99.90;;;;;;5034574;28;20718;-78
2021/01/17 03:56:07;;;;;;;54.53;27.20;;;-1.70;99.90;;;;;;5034516;28;20270;-77
2021/01/17 03:58:33;;;;;;;59.57;28.37;;;-1.70;99.90;;;;;;5034670;28;20293;-77
2021/01/17 04:00:59;;;;;;;52.40;26.97;;;-1.70;99.90;;;;;;5016852;28;20208;-77
2021/01/17 04:03:25;;;;;;;52.67;26.40;;;-1.60;99.90;;;;;;5016932;28;20215;-76
2021/01/17 04:05:51;;;;;;;58.33;27.60;;;-1.60;99.90;;;;;;5034512;28;20183;-77
2021/01/17 04:08:17;;;;;;;53.20;27.90;;;-1.60;99.90;;;;;;5034480;28;20184;-77
2021/01/17 04:10:43;;;;;;;56.10;27.33;;;-1.60;99.90;;;;;;5034521;28;20255;-75
2021/01/17 04:13:08;;;;;;;55.60;27.83;;;-1.60;99.90;;;;;;5016553;28;20208;-76
2021/01/17 04:15:34;;;;;;;54.87;27.73;;;-1.50;99.90;;;;;;5034295;28;20237;-77
2021/01/17 04:18:00;;;;;;;51.20;26.97;;;-1.50;99.90;;;;;;5031794;28;20229;-77
2021/01/17 04:20:25;;;;;;;51.93;26.00;;;-1.50;99.90;;;;;;5034286;28;20526;-77
2021/01/17 04:22:51;;;;;;;52.73;26.13;;;-1.50;99.90;;;;;;5034273;28;20198;-77
2021/01/17 04:25:17;;;;;;;49.13;25.13;;;-1.40;99.90;;;;;;5034193;28;20637;-77
2021/01/17 04:27:43;;;;;;;45.03;24.47;;;-1.40;99.90;;;;;;5026191;28;20168;-77
2021/01/17 04:30:10;;;;;;;51.57;25.07;;;-1.40;99.90;;;;;;5015852;28;20184;-77
2021/01/17 04:32:39;;;;;;;50.10;24.53;;;-1.30;99.90;;;;;;5016771;28;20179;-77
2021/01/17 04:35:06;;;;;;;46.30;24.60;;;-1.30;99.90;;;;;;5033693;28;20195;-77
2021/01/17 04:37:32;;;;;;;47.60;24.40;;;-1.20;99.90;;;;;;5033502;28;20177;-77
2021/01/17 04:39:57;;;;;;;43.23;24.07;;;-1.20;99.90;;;;;;5033684;28;20177;-77
2021/01/17 04:42:24;;;;;;;43.17;23.80;;;-1.20;99.90;;;;;;5033867;28;20172;-76
2021/01/17 04:44:51;;;;;;;41.80;23.07;;;-1.20;99.90;;;;;;5033959;28;20724;-77
2021/01/17 04:47:21;;;;;;;50.70;24.80;;;-1.20;99.90;;;;;;5016701;28;20691;-77
2021/01/17 04:49:58;;;;;;;46.57;23.73;;;-1.20;99.90;;;;;;5034447;28;20535;-76
2021/01/17 04:52:27;;;;;;;37.83;21.47;;;-1.30;99.90;;;;;;5033796;28;20647;-76
2021/01/17 04:54:53;;;;;;;40.50;21.57;;;-1.30;99.90;;;;;;5015433;28;20211;-76
2021/01/17 04:57:37;;;;;;;39.67;21.23;;;-1.20;99.90;;;;;;5016074;28;20272;-77
2021/01/17 05:00:09;;;;;;;35.73;20.00;;;-1.20;99.90;;;;;;5015666;28;20201;-76
2021/01/17 05:02:42;;;;;;;35.53;20.33;;;-1.20;99.90;;;;;;5005495;28;20172;-77
2021/01/17 05:05:22;;;;;;;36.93;20.00;;;-1.20;99.90;;;;;;5032513;28;20205;-76
2021/01/17 05:07:57;;;;;;;36.83;19.37;;;-1.20;99.90;;;;;;5012496;28;20176;-77
2021/01/17 05:10:35;;;;;;;33.83;18.50;;;-1.10;99.90;;;;;;5032431;28;20183;-76
2021/01/17 05:13:11;;;;;;;29.33;16.60;;;-1.10;99.90;;;;;;5032429;28;20248;-77
2021/01/17 05:15:38;;;;;;;33.50;18.43;;;-1.00;99.90;;;;;;5015354;28;20204;-77
2021/01/17 05:18:05;;;;;;;25.20;15.17;;;-1.00;99.90;;;;;;5033084;28;20640;-77
2021/01/17 05:20:31;;;;;;;21.00;13.20;;;-0.90;99.90;;;;;;5033335;28;20178;-78
2021/01/17 05:22:58;;;;;;;18.13;12.03;;;-0.90;99.90;;;;;;5033319;28;20200;-76
2021/01/17 05:25:28;;;;;;;18.60;11.40;;;-0.80;99.90;;;;;;5015177;28;20175;-76
2021/01/17 05:27:55;;;;;;;19.37;12.00;;;-0.70;99.90;;;;;;5024250;28;20254;-77
2021/01/17 05:30:21;;;;;;;16.67;10.40;;;-0.70;99.90;;;;;;5032853;28;20222;-75
2021/01/17 05:32:50;;;;;;;19.37;11.87;;;-0.70;99.90;;;;;;5032754;28;20687;-75
2021/01/17 05:35:18;;;;;;;17.90;11.80;;;-0.60;99.90;;;;;;5032988;28;20184;-75
2021/01/17 05:37:52;;;;;;;17.57;11.73;;;-0.60;99.90;;;;;;5032705;28;20226;-75
2021/01/17 05:40:18;;;;;;;18.53;12.03;;;-0.60;99.90;;;;;;5032532;28;20239;-76
2021/01/17 05:42:46;;;;;;;16.73;11.37;;;-0.60;99.90;;;;;;5032979;28;20183;-76
2021/01/17 05:45:22;;;;;;;18.37;12.10;;;-0.50;99.90;;;;;;5014727;28;20194;-76
2021/01/17 05:48:00;;;;;;;19.03;12.37;;;-0.50;99.90;;;;;;5032767;28;20269;-76
2021/01/17 05:50:29;;;;;;;17.13;12.37;;;-0.50;99.90;;;;;;5031695;28;20296;-76
2021/01/17 05:52:56;;;;;;;19.20;11.53;;;-0.50;99.90;;;;;;5032443;28;20265;-76
2021/01/17 05:55:48;;;;;;;16.97;12.00;;;-0.50;99.90;;;;;;5014621;28;20188;-76
2021/01/17 05:58:30;;;;;;;18.53;11.83;;;-0.50;99.90;;;;;;5028173;28;20221;-76
2021/01/17 06:01:14;;;;;;;19.03;11.33;;;-0.40;99.90;;;;;;5032659;28;20185;-76
2021/01/17 06:03:51;;;;;;;15.47;11.17;;;-0.40;99.90;;;;;;5014356;28;20227;-75
2021/01/17 06:06:44;;;;;;;17.27;11.60;;;-0.40;99.90;;;;;;5032518;28;20189;-74
2021/01/17 06:09:18;;;;;;;18.80;12.97;;;-0.30;99.90;;;;;;5028153;28;20188;-76
2021/01/17 06:11:58;;;;;;;34.70;19.27;;;-0.40;99.90;;;;;;5032344;28;20257;-75
2021/01/17 06:14:25;;;;;;;35.83;19.60;;;-0.50;99.90;;;;;;5032285;28;20201;-75
2021/01/17 06:17:00;;;;;;;34.37;19.17;;;-0.50;99.90;;;;;;5032069;28;20683;-76
2021/01/17 06:19:36;;;;;;;25.17;15.10;;;-0.50;99.90;;;;;;5032178;28;20169;-76
2021/01/17 06:22:12;;;;;;;27.83;16.67;;;-0.50;99.90;;;;;;5032435;28;20204;-75
2021/01/17 06:24:42;;;;;;;20.07;13.23;;;-0.50;99.90;;;;;;5031347;28;20200;-76
2021/01/17 06:27:08;;;;;;;24.43;14.70;;;-0.50;99.90;;;;;;5026902;28;20716;-76
2021/01/17 06:29:42;;;;;;;23.03;13.93;;;-0.40;99.90;;;;;;5026966;28;20209;-76
2021/01/17 06:32:30;;;;;;;22.37;13.87;;;-0.40;99.90;;;;;;5032271;28;20934;-76
2021/01/17 06:34:58;;;;;;;24.97;15.27;;;-0.30;99.90;;;;;;5027427;28;20208;-76
2021/01/17 06:37:28;;;;;;;36.43;19.27;;;-0.40;99.90;;;;;;5031908;28;20193;-77
2021/01/17 06:39:57;;;;;;;28.50;16.47;;;-0.40;99.90;;;;;;5014132;28;20716;-76
2021/01/17 06:42:23;;;;;;;32.10;18.50;;;-0.50;99.90;;;;;;5031963;28;20170;-75
2021/01/17 06:44:51;;;;;;;38.70;19.43;;;-0.50;99.90;;;;;;5014568;28;20212;-76
2021/01/17 06:47:22;;;;;;;31.27;17.73;;;-0.50;99.90;;;;;;5032055;28;20189;-76
2021/01/17 06:49:50;;;;;;;31.00;18.03;;;-0.50;99.90;;;;;;5032252;28;20197;-76
2021/01/17 06:52:16;;;;;;;29.97;17.50;;;-0.40;99.90;;;;;;5031861;28;20178;-76
2021/01/17 06:54:47;;;;;;;30.73;17.83;;;-0.50;99.90;;;;;;5031682;28;20295;-76
2021/01/17 06:57:14;;;;;;;24.70;14.47;;;-0.40;99.90;;;;;;5031916;28;20206;-76
2021/01/17 06:59:42;;;;;;;24.07;15.53;;;-0.40;99.90;;;;;;5033480;28;20171;-76
2021/01/17 07:02:14;;;;;;;30.97;17.70;;;-0.40;99.90;;;;;;5035621;28;20170;-76
2021/01/17 07:04:41;;;;;;;31.33;17.63;;;-0.40;99.90;;;;;;5035469;28;20196;-76
2021/01/17 07:07:42;;;;;;;28.50;15.40;;;-0.40;99.90;;;;;;5036393;28;20568;-76
2021/01/17 07:10:10;;;;;;;23.17;14.27;;;-0.40;99.90;;;;;;4998088;28;20190;-76
2021/01/17 07:13:01;;;;;;;27.80;16.20;;;-0.30;99.90;;;;;;5035962;28;20181;-76
2021/01/17 07:15:28;;;;;;;23.30;14.67;;;-0.30;99.90;;;;;;5035232;28;20676;-78
2021/01/17 07:18:15;;;;;;;13.63;9.33;;;-0.20;99.90;;;;;;5035258;28;20212;-76
2021/01/17 07:20:48;;;;;;;8.90;7.73;;;-0.10;99.90;;;;;;5035222;28;20602;-76
2021/01/17 07:23:18;;;;;;;7.60;6.80;;;0.00;99.90;;;;;;5035117;28;20256;-75
2021/01/17 07:25:46;;;;;;;7.20;5.93;;;0.20;99.90;;;;;;5035359;28;20210;-76
2021/01/17 07:28:20;;;;;;;7.93;6.80;;;0.30;99.90;;;;;;5027021;28;20174;-76
2021/01/17 07:31:01;;;;;;;7.57;6.77;;;0.30;99.90;;;;;;5035553;28;20200;-76
2021/01/17 07:33:29;;;;;;;7.40;6.70;;;0.30;99.90;;;;;;5017207;28;20212;-77
2021/01/17 07:36:05;;;;;;;7.57;6.77;;;0.30;99.90;;;;;;5035054;28;20194;-76
2021/01/17 07:38:34;;;;;;;8.73;6.17;;;0.40;99.90;;;;;;5035111;28;20896;-76
2021/01/17 07:41:10;;;;;;;7.13;6.43;;;0.40;99.90;;;;;;5035278;28;20182;-76
2021/01/17 07:43:38;;;;;;;6.97;6.07;;;0.40;99.90;;;;;;5034710;28;20224;-76
2021/01/17 07:46:05;;;;;;;30.87;17.83;;;0.40;99.90;;;;;;5034862;28;20725;-76
2021/01/17 07:48:32;;;;;;;22.00;14.20;;;0.30;99.90;;;;;;5017083;28;20181;-76
2021/01/17 07:51:00;;;;;;;34.60;18.67;;;0.20;99.90;;;;;;5034963;28;20258;-76
2021/01/17 07:56:35;;;;;;;51.17;26.40;;;0.00;99.90;;;;;;5037537;28;20256;-76
2021/01/17 07:59:02;;;;;;;49.07;26.93;;;-0.10;99.90;;;;;;5054837;28;20259;-76
2021/01/17 08:01:31;;;;;;;52.63;28.10;;;-0.20;99.90;;;;;;5036771;28;20189;-76
2021/01/17 08:04:17;;;;;;;54.63;28.50;;;-0.30;99.90;;;;;;5054583;28;20263;-76
2021/01/17 08:06:45;;;;;;;55.30;27.90;;;-0.30;99.90;;;;;;5045673;28;20621;-76
2021/01/17 08:09:15;;;;;;;53.33;27.37;;;-0.30;99.90;;;;;;5041020;28;20578;-76
2021/01/17 08:11:52;;;;;;;50.13;26.97;;;-0.40;99.90;;;;;;5057349;28;20238;-76
2021/01/17 08:14:26;;;;;;;37.53;21.30;;;-0.40;99.90;;;;;;5054283;28;20200;-76
2021/01/17 08:17:15;;;;;;;28.47;16.17;;;-0.30;99.90;;;;;;5054678;28;20199;-76
2021/01/17 08:19:44;;;;;;;8.97;7.23;;;-0.10;99.90;;;;;;5054287;28;20184;-76
2021/01/17 08:22:40;;;;;;;6.57;5.70;;;0.10;99.90;;;;;;5054275;28;20585;-76
2021/01/17 08:25:06;;;;;;;6.43;5.20;;;0.40;99.90;;;;;;5036073;28;20207;-76
2021/01/17 08:27:33;;;;;;;5.60;5.10;;;0.50;99.90;;;;;;5029676;28;20174;-76
2021/01/17 08:30:02;;;;;;;5.27;4.77;;;0.50;99.90;;;;;;5033975;28;20229;-76
2021/01/17 08:32:45;;;;;;;4.83;4.33;;;0.60;99.90;;;;;;5013570;28;20189;-76
2021/01/17 08:35:20;;;;;;;4.93;4.53;;;0.70;99.90;;;;;;5032606;28;20202;-75
2021/01/17 08:37:55;;;;;;;4.17;3.77;;;0.70;99.90;;;;;;5034099;28;20208;-76
2021/01/17 08:40:30;;;;;;;4.53;4.13;;;0.70;99.90;;;;;;5033664;28;20663;-75
2021/01/17 08:43:00;;;;;;;37.73;20.83;;;0.80;99.90;;;;;;5033923;28;20201;-76
2021/01/17 08:45:26;;;;;;;47.53;26.70;;;0.70;99.90;;;;;;5033857;28;20199;-76
2021/01/17 08:47:56;;;;;;;76.50;42.43;;;0.60;99.90;;;;;;5033661;28;20176;-76
2021/01/17 08:50:33;;;;;;;65.27;36.83;;;0.40;99.90;;;;;;5033486;28;20178;-75
2021/01/17 08:53:29;;;;;;;56.50;32.27;;;0.30;99.90;;;;;;5033491;28;20707;-76
2021/01/17 08:56:18;;;;;;;20.83;12.70;;;0.20;99.90;;;;;;5031656;28;20237;-76
2021/01/17 08:58:46;;;;;;;4.60;4.10;;;0.30;99.90;;;;;;5021223;28;20190;-76
2021/01/17 09:01:14;;;;;;;3.30;3.00;;;0.60;99.90;;;;;;5033204;28;20188;-76
2021/01/17 09:03:42;;;;;;;3.50;3.13;;;0.80;99.90;;;;;;5033276;28;20557;-75
2021/01/17 09:06:08;;;;;;;3.50;3.20;;;0.90;99.90;;;;;;5015522;28;20259;-76
2021/01/17 09:08:34;;;;;;;3.20;2.90;;;0.90;99.90;;;;;;5015476;28;20282;-75
2021/01/17 09:11:01;;;;;;;3.57;3.23;;;1.00;99.90;;;;;;5033178;28;20268;-75
2021/01/17 09:13:28;;;;;;;2.43;2.23;;;1.10;99.90;;;;;;5032997;28;20631;-76
2021/01/17 09:16:01;;;;;;;3.50;3.20;;;1.10;99.90;;;;;;5032233;28;20202;-77
2021/01/17 09:18:29;;;;;;;3.17;2.87;;;1.10;99.90;;;;;;5031238;28;20201;-75
2021/01/17 09:20:56;;;;;;;3.87;3.50;;;1.10;99.90;;;;;;5029485;28;20181;-76
2021/01/17 09:23:23;;;;;;;3.23;2.93;;;1.10;99.90;;;;;;5031334;28;20536;-75
2021/01/17 09:25:59;;;;;;;2.63;2.43;;;1.10;99.90;;;;;;5033030;28;20734;-76
2021/01/17 09:28:26;;;;;;;2.43;2.23;;;1.20;99.90;;;;;;5008419;28;20193;-76
2021/01/17 09:30:56;;;;;;;3.20;2.73;;;1.10;99.90;;;;;;5025329;28;20202;-75
2021/01/17 09:33:23;;;;;;;2.23;2.03;;;1.20;99.90;;;;;;5015193;28;20265;-76
2021/01/17 09:35:50;;;;;;;2.93;2.67;;;1.20;99.90;;;;;;5032905;28;20198;-76
2021/01/17 09:38:22;;;;;;;2.73;2.53;;;1.20;99.90;;;;;;5032264;28;20177;-76
2021/01/17 09:40:50;;;;;;;3.00;2.70;;;1.20;99.90;;;;;;5014859;28;20675;-76
2021/01/17 09:43:17;;;;;;;2.63;2.37;;;1.20;99.90;;;;;;5014900;28;20246;-76
2021/01/17 09:45:53;;;;;;;3.17;2.87;;;1.30;99.90;;;;;;5032558;28;20202;-76
2021/01/17 09:48:20;;;;;;;2.37;2.17;;;1.20;99.90;;;;;;5028789;28;20174;-76
2021/01/17 09:50:46;;;;;;;3.00;2.57;;;1.30;99.90;;;;;;5029803;28;20208;-76
2021/01/17 09:53:12;;;;;;;2.63;2.43;;;1.30;99.90;;;;;;5032805;28;20189;-76
2021/01/17 09:55:40;;;;;;;2.10;1.90;;;1.30;99.90;;;;;;5014684;28;20214;-76
2021/01/17 09:58:07;;;;;;;2.40;2.20;;;1.30;99.90;;;;;;5014885;28;20281;-76
2021/01/17 10:00:33;;;;;;;2.70;2.50;;;1.30;99.90;;;;;;5032614;28;20209;-76
2021/01/17 10:03:12;;;;;;;3.00;2.70;;;1.30;99.90;;;;;;5033229;28;20179;-77
2021/01/17 10:05:40;;;;;;;2.37;2.17;;;1.30;99.90;;;;;;5032327;28;20276;-76
2021/01/17 10:08:14;;;;;;;2.70;2.40;;;1.30;99.90;;;;;;5014447;28;20272;-76
2021/01/17 10:10:44;;;;;;;3.30;2.50;;;1.30;99.90;;;;;;5033213;28;20676;-78
2021/01/17 10:13:09;;;;;;;2.97;2.77;;;1.30;99.90;;;;;;5032081;28;20190;-76
2021/01/17 10:15:36;;;;;;;3.47;3.17;;;1.30;99.90;;;;;;5014406;28;20217;-76
2021/01/17 10:18:02;;;;;;;2.63;2.43;;;1.30;99.90;;;;;;5032105;28;20585;-76
2021/01/17 10:20:28;;;;;;;2.67;2.47;;;1.30;99.90;;;;;;5032373;28;20186;-76
2021/01/17 10:23:03;;;;;;;3.20;2.90;;;1.30;99.90;;;;;;5031909;28;20186;-76
2021/01/17 10:25:30;;;;;;;2.77;2.27;;;1.40;99.90;;;;;;5014250;28;20252;-76
2021/01/17 10:28:06;;;;;;;2.67;2.47;;;1.40;99.90;;;;;;5030120;28;20646;-77
2021/01/17 10:30:36;;;;;;;3.20;2.90;;;1.40;99.90;;;;;;5020628;28;20178;-76
2021/01/17 10:33:07;;;;;;;2.70;2.50;;;1.50;99.90;;;;;;5031652;28;20170;-76
2021/01/17 10:35:35;;;;;;;2.63;2.43;;;1.40;99.90;;;;;;5013481;28;20232;-76
2021/01/17 10:38:09;;;;;;;2.90;2.60;;;1.50;99.90;;;;;;5032154;28;20224;-76
2021/01/17 10:40:35;;;;;;;3.10;2.80;;;1.50;99.90;;;;;;5031751;28;20568;-76
2021/01/17 10:43:06;;;;;;;3.30;3.00;;;1.50;99.90;;;;;;5014084;28;20174;-76
2021/01/17 10:45:32;;;;;;;2.93;2.60;;;1.50;99.90;;;;;;5031715;28;20202;-76
2021/01/17 10:48:14;;;;;;;3.37;3.07;;;1.50;99.90;;;;;;5031817;28;20209;-76
2021/01/17 10:51:03;;;;;;;3.33;3.03;;;1.50;99.90;;;;;;5013870;28;20634;-76
2021/01/17 10:53:39;;;;;;;3.50;3.20;;;1.60;99.90;;;;;;5031822;28;20185;-76
2021/01/17 10:56:09;;;;;;;4.23;2.77;;;1.60;99.90;;;;;;5031967;28;20624;-76
2021/01/17 10:58:40;;;;;;;3.47;3.17;;;1.60;99.90;;;;;;5031576;28;20305;-76
2021/01/17 11:01:06;;;;;;;3.60;3.30;;;1.60;99.90;;;;;;5031549;28;20189;-77
2021/01/17 11:03:33;;;;;;;3.43;3.13;;;1.60;99.90;;;;;;5013754;28;20183;-77
2021/01/17 11:06:10;;;;;;;3.73;3.20;;;1.50;99.90;;;;;;5031543;28;20214;-77
2021/01/17 11:08:41;;;;;;;3.30;3.00;;;1.50;99.90;;;;;;5013987;28;20244;-77
2021/01/17 11:11:07;;;;;;;3.47;3.17;;;1.50;99.90;;;;;;5031939;28;20637;-77
2021/01/17 11:13:32;;;;;;;3.47;3.20;;;1.40;99.90;;;;;;5031678;28;20209;-77
2021/01/17 11:15:58;;;;;;;3.70;3.23;;;1.50;99.90;;;;;;5031671;28;20285;-77
2021/01/17 11:18:25;;;;;;;3.73;3.43;;;1.50;99.90;;;;;;5031656;28;20244;-77
2021/01/17 11:20:58;;;;;;;4.10;3.73;;;1.50;99.90;;;;;;5032287;28;20293;-77
2021/01/17 11:23:26;;;;;;;3.50;3.20;;;1.60;99.90;;;;;;5032583;28;20216;-77
2021/01/17 11:26:00;;;;;;;4.10;3.70;;;1.60;99.90;;;;;;5032441;28;20175;-77
2021/01/17 11:28:28;;;;;;;4.33;4.03;;;1.70;99.90;;;;;;5014582;28;20186;-77
2021/01/17 11:31:10;;;;;;;4.40;3.97;;;1.70;99.90;;;;;;5031936;28;20189;-77
2021/01/17 11:33:36;;;;;;;4.60;4.20;;;1.70;99.90;;;;;;5032484;28;20607;-77
2021/01/17 11:36:03;;;;;;;4.53;4.13;;;1.70;99.90;;;;;;5031508;28;20337;-77
2021/01/17 11:38:50;;;;;;;4.33;3.93;;;1.80;99.90;;;;;;5014450;28;20217;-78
2021/01/17 11:41:18;;;;;;;4.07;3.37;;;1.80;99.90;;;;;;5033260;28;20257;-78
2021/01/17 11:43:45;;;;;;;3.87;3.57;;;1.80;99.90;;;;;;5014221;28;20205;-77
2021/01/17 11:46:13;;;;;;;3.87;3.57;;;1.80;99.90;;;;;;5033758;28;20193;-77
2021/01/17 11:48:39;;;;;;;3.63;3.33;;;1.90;99.90;;;;;;5016974;28;20186;-78
2021/01/17 11:51:07;;;;;;;4.23;3.80;;;1.80;99.90;;;;;;5016211;28;20182;-78
2021/01/17 11:53:33;;;;;;;4.07;3.77;;;1.80;99.90;;;;;;5017358;28;20319;-78
2021/01/17 11:56:00;;;;;;;4.50;4.10;;;1.90;99.90;;;;;;5016816;28;20202;-78
2021/01/17 11:58:27;;;;;;;4.03;3.73;;;1.80;99.90;;;;;;5029400;28;20175;-77
2021/01/17 12:00:57;;;;;;;3.90;3.60;;;1.80;99.90;;;;;;5035308;28;20259;-78
2021/01/17 12:03:34;;;;;;;3.47;3.17;;;1.80;99.90;;;;;;5034985;28;20175;-78
2021/01/17 12:06:30;;;;;;;4.30;3.90;;;1.80;99.90;;;;;;5032672;28;20178;-78
2021/01/17 12:09:04;;;;;;;4.03;3.63;;;1.90;99.90;;;;;;5007177;28;20202;-78
2021/01/17 12:11:32;;;;;;;4.00;3.67;;;1.90;99.90;;;;;;5027373;28;20186;-78
2021/01/17 12:14:00;;;;;;;3.47;3.17;;;1.90;99.90;;;;;;5029106;28;20214;-77
2021/01/17 12:16:29;;;;;;;4.13;3.60;;;2.00;99.90;;;;;;5031979;28;20194;-77
2021/01/17 12:18:55;;;;;;;3.73;3.43;;;2.00;99.90;;;;;;5010507;28;20565;-78
2021/01/17 12:21:28;;;;;;;3.60;3.30;;;2.00;99.90;;;;;;5028444;28;20186;-78
2021/01/17 12:23:55;;;;;;;4.00;3.63;;;2.00;99.90;;;;;;5027983;28;20224;-78
2021/01/17 12:26:21;;;;;;;4.20;3.80;;;2.10;99.90;;;;;;5007745;28;20191;-77
2021/01/17 12:28:47;;;;;;;3.70;3.40;;;2.00;99.90;;;;;;5031377;28;20182;-76
2021/01/17 12:31:17;;;;;;;4.70;4.30;;;2.00;99.90;;;;;;5036964;28;20273;-78
2021/01/17 12:33:43;;;;;;;3.00;2.80;;;2.00;99.90;;;;;;5013777;28;20210;-77
2021/01/17 12:36:15;;;;;;;3.60;3.30;;;2.10;99.90;;;;;;5021181;28;20198;-77
2021/01/17 12:38:41;;;;;;;3.37;2.93;;;2.10;99.90;;;;;;5011237;28;20239;-77
2021/01/17 12:41:15;;;;;;;2.80;2.60;;;2.10;99.90;;;;;;5030209;28;20182;-76
2021/01/17 12:43:42;;;;;;;3.73;3.43;;;2.10;99.90;;;;;;5024189;28;20236;-77
2021/01/17 12:46:09;;;;;;;5.93;4.80;;;2.10;99.90;;;;;;5020388;28;20186;-77
2021/01/17 12:48:37;;;;;;;3.03;2.73;;;2.10;99.90;;;;;;5014663;28;20193;-77
2021/01/17 12:51:04;;;;;;;3.17;2.87;;;2.00;99.90;;;;;;5023506;28;20214;-77
2021/01/17 12:53:30;;;;;;;2.80;2.60;;;2.10;99.90;;;;;;5007432;28;20227;-76
2021/01/17 12:55:56;;;;;;;1.70;1.60;;;2.10;99.90;;;;;;5024392;28;20665;-77